createdAt,value
2022-12-18T00:00:03.375Z,19.12
2022-12-18T00:01:03.362Z,19.17
2022-12-18T00:02:03.434Z,19.17
2022-12-18T00:03:03.444Z,19.17
2022-12-18T00:04:03.509Z,19.17
2022-12-18T00:05:03.313Z,19.12
2022-12-18T00:06:03.315Z,19.17
2022-12-18T00:07:03.301Z,19.17
2022-12-18T00:08:03.280Z,19.17
2022-12-18T00:09:04.263Z,19.17
2022-12-18T00:10:03.252Z,19.17
2022-12-18T00:11:03.248Z,19.17
2022-12-18T00:13:08.241Z,19.12
2022-12-18T00:14:04.209Z,19.17
2022-12-18T00:15:03.219Z,19.17
2022-12-18T00:16:03.206Z,19.17
2022-12-18T00:17:03.181Z,19.17
2022-12-18T00:18:03.164Z,19.17
2022-12-18T00:19:03.183Z,19.17
2022-12-18T00:20:03.126Z,19.17
2022-12-18T00:21:03.110Z,19.17
2022-12-18T00:22:03.116Z,19.17
2022-12-18T00:23:03.089Z,19.17
2022-12-18T00:24:03.085Z,19.12
2022-12-18T00:25:03.070Z,19.17
2022-12-18T00:26:03.057Z,19.12
2022-12-18T00:27:03.055Z,19.17
2022-12-18T00:28:03.026Z,19.17
2022-12-18T00:29:03.005Z,19.12
2022-12-18T00:30:03.004Z,19.17
2022-12-18T00:31:03.050Z,19.17
2022-12-18T00:32:03.040Z,19.12
2022-12-18T00:33:02.964Z,19.17
2022-12-18T00:34:02.965Z,19.17
2022-12-18T00:35:02.935Z,19.12
2022-12-18T00:36:02.935Z,19.23
2022-12-18T00:37:02.926Z,19.12
2022-12-18T00:38:02.902Z,19.17
2022-12-18T00:39:02.892Z,19.17
2022-12-18T00:40:02.881Z,19.17
2022-12-18T00:41:02.861Z,19.17
2022-12-18T00:42:02.870Z,19.17
2022-12-18T00:43:02.839Z,19.17
2022-12-18T00:44:02.829Z,19.17
2022-12-18T00:45:06.394Z,19.17
2022-12-18T00:46:03.876Z,19.12
2022-12-18T00:47:02.808Z,19.12
2022-12-18T00:48:02.811Z,19.01
2022-12-18T00:49:02.766Z,19.17
2022-12-18T00:50:02.757Z,19.17
2022-12-18T00:51:02.745Z,19.17
2022-12-18T00:52:02.755Z,19.17
2022-12-18T00:53:02.716Z,19.17
2022-12-18T00:54:02.707Z,19.12
2022-12-18T00:55:06.242Z,19.17
2022-12-18T00:56:02.688Z,19.17
2022-12-18T00:57:02.687Z,18.96
2022-12-18T00:58:02.666Z,18.96
2022-12-18T00:59:02.636Z,19.17
2022-12-18T01:00:02.636Z,19.17
2022-12-18T01:01:02.682Z,19.17
2022-12-18T01:02:02.697Z,18.96
2022-12-18T01:03:02.632Z,18.91
2022-12-18T01:04:02.582Z,19.01
2022-12-18T01:05:02.565Z,19.17
2022-12-18T01:06:02.568Z,19.17
2022-12-18T01:07:02.553Z,19.17
2022-12-18T01:08:02.535Z,19.01
2022-12-18T01:09:02.514Z,19.17
2022-12-18T01:10:02.515Z,18.96
2022-12-18T01:11:02.498Z,19.17
2022-12-18T01:12:02.506Z,18.96
2022-12-18T01:13:02.471Z,19.17
2022-12-18T01:14:02.460Z,19.17
2022-12-18T01:15:02.451Z,19.17
2022-12-18T01:16:02.492Z,18.96
2022-12-18T01:17:02.430Z,19.17
2022-12-18T01:18:02.422Z,19.12
2022-12-18T01:19:02.408Z,19.17
2022-12-18T01:20:02.391Z,18.96
2022-12-18T01:21:02.376Z,19.01
2022-12-18T01:22:02.390Z,18.96
2022-12-18T01:23:02.346Z,19.12
2022-12-18T01:24:02.358Z,19.17
2022-12-18T01:25:02.329Z,18.96
2022-12-18T01:26:02.315Z,19.01
2022-12-18T01:27:02.314Z,18.80
2022-12-18T01:28:02.294Z,18.69
2022-12-18T01:29:02.274Z,19.17
2022-12-18T01:30:02.264Z,19.01
2022-12-18T01:31:02.257Z,18.96
2022-12-18T01:32:02.286Z,19.12
2022-12-18T01:33:02.234Z,17.13
2022-12-18T01:34:02.212Z,19.12
2022-12-18T01:35:02.202Z,18.80
2022-12-18T01:36:02.191Z,18.75
2022-12-18T01:37:02.174Z,19.23
2022-12-18T01:38:02.188Z,19.01
2022-12-18T01:39:02.149Z,18.96
2022-12-18T01:40:02.143Z,18.96
2022-12-18T01:41:02.126Z,18.15
2022-12-18T01:42:02.114Z,18.96
2022-12-18T01:43:02.122Z,18.96
2022-12-18T01:44:02.088Z,19.44
2022-12-18T01:45:02.084Z,18.96
2022-12-18T01:46:02.129Z,18.75
2022-12-18T01:47:02.058Z,18.96
2022-12-18T01:48:02.061Z,19.17
2022-12-18T01:49:02.034Z,19.17
2022-12-18T01:50:02.016Z,18.96
2022-12-18T01:51:02.008Z,18.91
2022-12-18T01:52:01.989Z,19.12
2022-12-18T01:53:02.006Z,18.96
2022-12-18T01:54:01.972Z,18.96
2022-12-18T01:55:01.965Z,18.96
2022-12-18T01:56:01.936Z,19.17
2022-12-18T01:57:01.938Z,18.96
2022-12-18T01:58:01.934Z,18.96
2022-12-18T01:59:01.914Z,18.91
2022-12-18T02:00:01.901Z,18.96
2022-12-18T02:01:01.938Z,18.75
2022-12-18T02:02:02.043Z,18.75
2022-12-18T02:03:02.043Z,19.17
2022-12-18T02:04:01.845Z,19.01
2022-12-18T02:05:01.839Z,18.96
2022-12-18T02:06:01.834Z,18.96
2022-12-18T02:07:01.812Z,19.07
2022-12-18T02:08:01.815Z,19.28
2022-12-18T02:09:01.804Z,18.96
2022-12-18T02:10:01.771Z,18.85
2022-12-18T02:11:01.768Z,18.96
2022-12-18T02:12:01.749Z,18.96
2022-12-18T02:13:01.749Z,18.96
2022-12-18T02:14:01.732Z,19.12
2022-12-18T02:15:01.717Z,18.85
2022-12-18T02:16:01.696Z,18.96
2022-12-18T02:17:01.730Z,18.96
2022-12-18T02:18:01.690Z,18.75
2022-12-18T02:19:01.666Z,18.96
2022-12-18T02:20:01.725Z,18.75
2022-12-18T02:21:01.646Z,18.96
2022-12-18T02:22:01.626Z,18.96
2022-12-18T02:23:01.636Z,18.80
2022-12-18T02:24:01.603Z,19.01
2022-12-18T02:25:01.603Z,18.96
2022-12-18T02:26:01.575Z,19.01
2022-12-18T02:27:01.566Z,18.96
2022-12-18T02:28:01.572Z,18.96
2022-12-18T02:29:01.547Z,18.80
2022-12-18T02:30:01.538Z,18.96
2022-12-18T02:31:01.609Z,18.75
2022-12-18T02:32:01.509Z,18.80
2022-12-18T02:33:01.514Z,18.96
2022-12-18T02:34:01.481Z,18.96
2022-12-18T02:35:01.471Z,18.96
2022-12-18T02:36:01.466Z,18.75
2022-12-18T02:37:01.452Z,19.01
2022-12-18T02:38:01.461Z,18.80
2022-12-18T02:39:01.423Z,18.96
2022-12-18T02:40:01.411Z,18.80
2022-12-18T02:41:01.399Z,18.96
2022-12-18T02:42:01.380Z,18.96
2022-12-18T02:43:01.391Z,18.75
2022-12-18T02:44:01.357Z,18.42
2022-12-18T02:45:01.348Z,19.01
2022-12-18T02:46:01.368Z,18.91
2022-12-18T02:47:01.327Z,18.80
2022-12-18T02:48:01.331Z,18.80
2022-12-18T02:49:01.310Z,18.80
2022-12-18T02:50:01.299Z,18.80
2022-12-18T02:51:01.284Z,18.75
2022-12-18T02:52:01.268Z,18.37
2022-12-18T02:53:01.279Z,18.37
2022-12-18T02:54:01.234Z,18.96
2022-12-18T02:55:01.225Z,18.80
2022-12-18T02:56:01.214Z,18.96
2022-12-18T02:57:01.215Z,18.75
2022-12-18T02:58:01.204Z,18.96
2022-12-18T02:59:01.201Z,18.75
2022-12-18T03:00:01.163Z,18.96
2022-12-18T03:01:01.226Z,18.75
2022-12-18T03:02:01.336Z,18.42
2022-12-18T03:03:01.208Z,18.53
2022-12-18T03:04:01.123Z,19.01
2022-12-18T03:05:01.110Z,18.75
2022-12-18T03:06:01.093Z,18.96
2022-12-18T03:07:01.089Z,18.96
2022-12-18T03:08:01.091Z,18.75
2022-12-18T03:09:01.068Z,18.37
2022-12-18T03:10:01.049Z,18.75
2022-12-18T03:11:01.040Z,18.96
2022-12-18T03:12:01.027Z,18.80
2022-12-18T03:13:01.027Z,18.37
2022-12-18T03:14:00.998Z,18.80
2022-12-18T03:15:00.987Z,18.37
2022-12-18T03:16:00.978Z,18.80
2022-12-18T03:17:01.026Z,18.96
2022-12-18T03:18:00.969Z,18.42
2022-12-18T03:19:00.944Z,18.80
2022-12-18T03:20:00.929Z,18.75
2022-12-18T03:21:00.915Z,18.96
2022-12-18T03:22:00.906Z,18.37
2022-12-18T03:23:00.907Z,18.42
2022-12-18T03:24:00.885Z,18.96
2022-12-18T03:25:00.865Z,18.96
2022-12-18T03:26:05.884Z,18.37
2022-12-18T03:27:01.844Z,18.75
2022-12-18T03:28:00.844Z,18.75
2022-12-18T03:29:00.823Z,18.96
2022-12-18T03:30:00.864Z,18.37
2022-12-18T03:31:00.851Z,18.75
2022-12-18T03:32:00.787Z,18.80
2022-12-18T03:33:00.791Z,18.80
2022-12-18T03:34:00.766Z,18.37
2022-12-18T03:35:00.761Z,18.37
2022-12-18T03:36:00.732Z,18.96
2022-12-18T03:37:00.733Z,18.42
2022-12-18T03:38:00.727Z,18.80
2022-12-18T03:39:00.713Z,19.12
2022-12-18T03:40:00.698Z,19.01
2022-12-18T03:41:00.680Z,18.80
2022-12-18T03:42:00.669Z,18.75
2022-12-18T03:43:00.669Z,18.75
2022-12-18T03:44:00.639Z,18.75
2022-12-18T03:45:00.638Z,18.37
2022-12-18T03:46:00.664Z,18.91
2022-12-18T03:47:00.607Z,18.37
2022-12-18T03:48:00.606Z,18.75
2022-12-18T03:49:00.587Z,18.37
2022-12-18T03:50:00.575Z,18.37
2022-12-18T03:51:00.568Z,18.42
2022-12-18T03:52:00.545Z,18.42
2022-12-18T03:53:00.555Z,18.37
2022-12-18T03:54:00.527Z,18.37
2022-12-18T03:55:00.526Z,18.37
2022-12-18T03:56:00.504Z,18.75
2022-12-18T03:57:00.501Z,18.37
2022-12-18T03:58:00.501Z,18.80
2022-12-18T03:59:00.463Z,18.37
2022-12-18T04:00:00.462Z,18.42
2022-12-18T04:01:00.444Z,18.75
2022-12-18T04:02:00.518Z,18.42
2022-12-18T04:03:00.446Z,18.75
2022-12-18T04:04:00.466Z,18.37
2022-12-18T04:05:00.400Z,18.42
2022-12-18T04:06:00.385Z,18.37
2022-12-18T04:07:00.378Z,18.32
2022-12-18T04:08:00.379Z,18.37
2022-12-18T04:09:00.350Z,18.37
2022-12-18T04:10:00.330Z,18.42
2022-12-18T04:11:00.328Z,18.75
2022-12-18T04:12:00.319Z,18.42
2022-12-18T04:13:00.317Z,18.37
2022-12-18T04:14:01.948Z,18.37
2022-12-18T04:15:00.277Z,18.75
2022-12-18T04:16:00.297Z,18.37
2022-12-18T04:17:00.260Z,18.42
2022-12-18T04:18:00.247Z,18.42
2022-12-18T04:19:00.245Z,18.42
2022-12-18T04:20:00.219Z,18.37
2022-12-18T04:21:00.216Z,18.37
2022-12-18T04:22:00.197Z,18.37
2022-12-18T04:23:00.187Z,18.80
2022-12-18T04:24:00.193Z,18.42
2022-12-18T04:25:00.176Z,18.37
2022-12-18T04:26:00.143Z,18.37
2022-12-18T04:27:00.141Z,18.42
2022-12-18T04:28:00.125Z,18.37
2022-12-18T04:29:00.127Z,18.75
2022-12-18T04:30:00.122Z,18.75
2022-12-18T04:31:00.182Z,18.37
2022-12-18T04:32:00.079Z,18.42
2022-12-18T04:33:00.087Z,18.37
2022-12-18T04:34:00.085Z,18.37
2022-12-18T04:35:00.040Z,18.37
2022-12-18T04:36:00.031Z,18.37
2022-12-18T04:37:00.019Z,18.32
2022-12-18T04:38:00.006Z,18.42
2022-12-18T04:39:00.010Z,18.37
2022-12-18T04:39:59.988Z,18.37
2022-12-18T04:40:59.973Z,18.42
2022-12-18T04:41:59.958Z,18.37
2022-12-18T04:42:59.992Z,18.42
2022-12-18T04:43:59.949Z,18.48
2022-12-18T04:44:59.927Z,18.37
2022-12-18T04:45:59.941Z,18.85
2022-12-18T04:46:59.912Z,18.21
2022-12-18T04:47:59.888Z,18.42
2022-12-18T04:48:59.895Z,18.37
2022-12-18T04:49:59.865Z,18.42
2022-12-18T04:50:59.855Z,18.75
2022-12-18T04:51:59.842Z,18.80
2022-12-18T04:52:59.835Z,18.37
2022-12-18T04:53:59.832Z,19.23
2022-12-18T04:54:59.806Z,18.26
2022-12-18T04:55:59.794Z,18.37
2022-12-18T04:56:59.792Z,18.37
2022-12-18T04:57:59.772Z,18.42
2022-12-18T04:58:59.775Z,18.37
2022-12-18T04:59:59.805Z,18.37
2022-12-18T05:00:59.743Z,18.42
2022-12-18T05:01:59.856Z,18.37
2022-12-18T05:02:59.783Z,18.42
2022-12-18T05:03:59.760Z,18.15
2022-12-18T05:04:59.691Z,18.42
2022-12-18T05:05:59.678Z,18.42
2022-12-18T05:06:59.670Z,18.37
2022-12-18T05:07:59.658Z,18.21
2022-12-18T05:08:59.660Z,18.21
2022-12-18T05:09:59.632Z,18.21
2022-12-18T05:10:59.628Z,18.37
2022-12-18T05:11:59.609Z,18.37
2022-12-18T05:13:00.975Z,18.42
2022-12-18T05:13:59.597Z,18.42
2022-12-18T05:14:59.575Z,18.21
2022-12-18T05:15:59.579Z,18.21
2022-12-18T05:17:01.264Z,18.21
2022-12-18T05:17:59.541Z,18.21
2022-12-18T05:18:59.543Z,18.80
2022-12-18T05:19:59.512Z,18.15
2022-12-18T05:20:59.508Z,18.15
2022-12-18T05:21:59.500Z,18.37
2022-12-18T05:22:59.498Z,18.37
2022-12-18T05:23:59.524Z,18.37
2022-12-18T05:24:59.463Z,18.37
2022-12-18T05:25:59.442Z,18.21
2022-12-18T05:26:59.449Z,18.37
2022-12-18T05:27:59.421Z,18.21
2022-12-18T05:28:59.422Z,18.21
2022-12-18T05:29:59.391Z,18.15
2022-12-18T05:30:59.445Z,18.15
2022-12-18T05:31:59.382Z,18.37
2022-12-18T05:32:59.362Z,18.21
2022-12-18T05:33:59.371Z,18.42
2022-12-18T05:34:59.382Z,18.37
2022-12-18T05:35:59.329Z,18.15
2022-12-18T05:36:59.319Z,18.37
2022-12-18T05:37:59.310Z,18.37
2022-12-18T05:38:59.312Z,18.32
2022-12-18T05:39:59.279Z,18.42
2022-12-18T05:40:59.278Z,18.21
2022-12-18T05:41:59.259Z,18.21
2022-12-18T05:42:59.248Z,18.15
2022-12-18T05:43:59.246Z,18.42
2022-12-18T05:44:59.226Z,18.15
2022-12-18T05:45:59.213Z,18.21
2022-12-18T05:46:59.309Z,18.21
2022-12-18T05:47:59.184Z,18.15
2022-12-18T05:48:59.185Z,18.21
2022-12-18T05:49:59.164Z,18.21
2022-12-18T05:50:59.158Z,18.21
2022-12-18T05:51:59.135Z,18.21
2022-12-18T05:52:59.127Z,18.15
2022-12-18T05:53:59.124Z,18.15
2022-12-18T05:54:59.117Z,18.21
2022-12-18T05:55:59.091Z,18.15
2022-12-18T05:57:10.533Z,18.21
2022-12-18T05:58:00.086Z,18.26
2022-12-18T05:58:59.063Z,18.42
2022-12-18T05:59:59.044Z,18.21
2022-12-18T06:00:59.032Z,18.21
2022-12-18T06:01:59.096Z,18.21
2022-12-18T06:02:59.071Z,18.21
2022-12-18T06:03:59.074Z,18.21
2022-12-18T06:04:58.979Z,18.21
2022-12-18T06:05:58.979Z,18.21
2022-12-18T06:06:58.968Z,18.21
2022-12-18T06:07:58.949Z,18.21
2022-12-18T06:08:58.949Z,18.21
2022-12-18T06:09:58.936Z,18.21
2022-12-18T06:10:58.909Z,18.21
2022-12-18T06:11:58.908Z,18.15
2022-12-18T06:12:58.887Z,18.21
2022-12-18T06:14:00.297Z,18.26
2022-12-18T06:14:58.868Z,18.21
2022-12-18T06:15:58.895Z,17.78
2022-12-18T06:16:58.965Z,18.15
2022-12-18T06:17:58.836Z,17.83
2022-12-18T06:18:58.847Z,18.21
2022-12-18T06:19:58.825Z,18.10
2022-12-18T06:20:58.797Z,18.15
2022-12-18T06:21:58.793Z,18.21
2022-12-18T06:22:58.774Z,17.83
2022-12-18T06:23:58.785Z,18.15
2022-12-18T06:24:58.764Z,18.15
2022-12-18T06:25:58.753Z,18.15
2022-12-18T06:26:58.745Z,18.15
2022-12-18T06:27:58.723Z,17.78
2022-12-18T06:28:58.711Z,17.99
2022-12-18T06:29:58.692Z,18.15
2022-12-18T06:30:58.709Z,18.21
2022-12-18T06:31:58.784Z,18.21
2022-12-18T06:32:58.652Z,17.83
2022-12-18T06:33:58.660Z,18.21
2022-12-18T06:34:58.629Z,17.78
2022-12-18T06:36:01.093Z,17.78
2022-12-18T06:36:58.613Z,18.15
2022-12-18T06:37:58.601Z,18.21
2022-12-18T06:38:58.608Z,17.78
2022-12-18T06:39:58.577Z,17.78
2022-12-18T06:40:58.567Z,18.15
2022-12-18T06:41:58.551Z,18.15
2022-12-18T06:42:58.554Z,17.83
2022-12-18T06:44:00.093Z,17.83
2022-12-18T06:44:58.506Z,17.78
2022-12-18T06:45:58.535Z,18.15
2022-12-18T06:46:58.486Z,18.21
2022-12-18T06:47:58.483Z,17.83
2022-12-18T06:48:58.475Z,18.21
2022-12-18T06:49:58.454Z,17.83
2022-12-18T06:50:58.456Z,17.78
2022-12-18T06:51:58.433Z,17.83
2022-12-18T06:52:58.414Z,17.83
2022-12-18T06:53:58.425Z,17.78
2022-12-18T06:54:58.392Z,17.83
2022-12-18T06:55:58.392Z,17.83
2022-12-18T06:56:58.372Z,16.81
2022-12-18T06:57:58.361Z,17.78
2022-12-18T06:58:58.360Z,17.78
2022-12-18T06:59:58.340Z,17.78
2022-12-18T07:00:58.355Z,17.83
2022-12-18T07:01:58.400Z,17.83
2022-12-18T07:02:58.320Z,17.78
2022-12-18T07:03:58.302Z,17.78
2022-12-18T07:04:58.269Z,17.83
2022-12-18T07:05:58.270Z,17.78
2022-12-18T07:06:58.248Z,17.78
2022-12-18T07:07:58.239Z,17.83
2022-12-18T07:08:58.238Z,18.21
2022-12-18T07:09:58.221Z,17.78
2022-12-18T07:10:58.205Z,17.78
2022-12-18T07:11:58.198Z,17.78
2022-12-18T07:12:58.186Z,17.83
2022-12-18T07:13:58.189Z,17.83
2022-12-18T07:14:58.157Z,17.83
2022-12-18T07:15:58.168Z,17.83
2022-12-18T07:16:58.233Z,17.78
2022-12-18T07:17:58.126Z,17.83
2022-12-18T07:18:58.124Z,17.83
2022-12-18T07:19:58.108Z,17.78
2022-12-18T07:20:58.085Z,17.78
2022-12-18T07:21:58.074Z,17.78
2022-12-18T07:22:58.067Z,17.83
2022-12-18T07:23:58.074Z,17.78
2022-12-18T07:24:58.039Z,17.83
2022-12-18T07:25:58.032Z,17.78
2022-12-18T07:26:58.014Z,17.78
2022-12-18T07:27:58.012Z,17.78
2022-12-18T07:28:58.003Z,17.83
2022-12-18T07:29:57.984Z,17.83
2022-12-18T07:30:57.967Z,17.78
2022-12-18T07:31:58.007Z,17.78
2022-12-18T07:32:57.940Z,17.78
2022-12-18T07:33:57.937Z,17.83
2022-12-18T07:34:57.940Z,17.78
2022-12-18T07:35:57.919Z,17.83
2022-12-18T07:36:57.901Z,17.78
2022-12-18T07:37:57.899Z,17.78
2022-12-18T07:38:57.876Z,17.83
2022-12-18T07:39:57.884Z,17.78
2022-12-18T07:40:57.856Z,17.78
2022-12-18T07:41:57.845Z,17.83
2022-12-18T07:42:57.827Z,17.78
2022-12-18T07:43:57.823Z,17.83
2022-12-18T07:44:57.815Z,17.83
2022-12-18T07:45:57.848Z,17.78
2022-12-18T07:46:57.788Z,17.67
2022-12-18T07:47:57.780Z,17.78
2022-12-18T07:48:57.760Z,17.78
2022-12-18T07:49:57.765Z,17.78
2022-12-18T07:50:57.735Z,17.78
2022-12-18T07:51:57.744Z,17.78
2022-12-18T07:52:57.715Z,17.83
2022-12-18T07:53:57.703Z,17.62
2022-12-18T07:54:57.700Z,17.62
2022-12-18T07:56:25.445Z,17.83
2022-12-18T07:56:58.661Z,17.83
2022-12-18T07:58:01.013Z,17.83
2022-12-18T07:58:57.650Z,17.62
2022-12-18T07:59:57.651Z,17.78
2022-12-18T08:00:57.652Z,17.62
2022-12-18T08:01:57.767Z,17.62
2022-12-18T08:02:57.690Z,17.56
2022-12-18T08:03:57.590Z,17.62
2022-12-18T08:04:57.589Z,17.62
2022-12-18T08:05:57.569Z,17.56
2022-12-18T08:06:57.548Z,17.83
2022-12-18T08:07:57.568Z,17.62
2022-12-18T08:08:57.530Z,17.62
2022-12-18T08:09:57.531Z,17.62
2022-12-18T08:10:57.501Z,17.78
2022-12-18T08:11:57.486Z,17.78
2022-12-18T08:13:01.498Z,17.62
2022-12-18T08:13:58.478Z,17.62
2022-12-18T08:14:57.466Z,17.83
2022-12-18T08:15:57.446Z,17.78
2022-12-18T08:16:57.481Z,17.62
2022-12-18T08:17:57.424Z,17.78
2022-12-18T08:18:57.407Z,17.62
2022-12-18T08:19:57.413Z,17.83
2022-12-18T08:20:57.393Z,17.67
2022-12-18T08:21:57.380Z,17.83
2022-12-18T08:22:57.362Z,17.62
2022-12-18T08:23:57.352Z,17.62
2022-12-18T08:24:57.346Z,17.67
2022-12-18T08:25:57.324Z,17.62
2022-12-18T08:27:21.209Z,17.62
2022-12-18T08:27:58.301Z,17.62
2022-12-18T08:28:57.291Z,17.62
2022-12-18T08:29:57.305Z,17.62
2022-12-18T08:30:57.333Z,17.62
2022-12-18T08:31:57.278Z,17.56
2022-12-18T08:32:57.238Z,17.62
2022-12-18T08:33:57.259Z,17.62
2022-12-18T08:34:57.236Z,17.62
2022-12-18T08:35:57.226Z,17.62
2022-12-18T08:36:57.193Z,17.56
2022-12-18T08:37:57.181Z,17.62
2022-12-18T08:38:57.160Z,17.62
2022-12-18T08:39:57.167Z,17.62
2022-12-18T08:40:57.140Z,17.62
2022-12-18T08:41:57.128Z,17.62
2022-12-18T08:42:57.149Z,17.56
2022-12-18T08:43:57.103Z,17.56
2022-12-18T08:44:57.105Z,17.56
2022-12-18T08:45:57.136Z,17.62
2022-12-18T08:46:57.066Z,17.62
2022-12-18T08:47:57.056Z,17.62
2022-12-18T08:48:57.040Z,17.40
2022-12-18T08:49:57.053Z,18.64
2022-12-18T08:50:57.016Z,17.35
2022-12-18T08:51:57.006Z,17.62
2022-12-18T08:52:56.993Z,17.40
2022-12-18T08:53:56.979Z,17.62
2022-12-18T08:54:56.982Z,17.62
2022-12-18T08:55:56.958Z,17.40
2022-12-18T08:56:56.941Z,17.35
2022-12-18T08:57:56.931Z,17.40
2022-12-18T08:58:56.920Z,17.56
2022-12-18T08:59:56.921Z,17.40
2022-12-18T09:00:56.918Z,17.46
2022-12-18T09:01:56.992Z,17.62
2022-12-18T09:02:56.997Z,17.46
2022-12-18T09:03:56.862Z,17.62
2022-12-18T09:04:57.710Z,17.67
2022-12-18T09:05:56.838Z,17.62
2022-12-18T09:06:56.847Z,17.56
2022-12-18T09:07:56.810Z,17.62
2022-12-18T09:08:56.798Z,17.46
2022-12-18T09:09:56.808Z,17.62
2022-12-18T09:10:56.767Z,17.62
2022-12-18T09:11:56.766Z,17.56
2022-12-18T09:12:56.756Z,17.62
2022-12-18T09:13:56.735Z,17.35
2022-12-18T09:14:56.720Z,17.40
2022-12-18T09:15:56.728Z,17.40
2022-12-18T09:16:56.787Z,17.40
2022-12-18T09:17:56.977Z,17.40
2022-12-18T09:18:56.687Z,17.51
2022-12-18T09:19:56.674Z,17.40
2022-12-18T09:20:56.663Z,17.40
2022-12-18T09:21:56.654Z,17.46
2022-12-18T09:22:56.690Z,17.40
2022-12-18T09:23:56.612Z,17.40
2022-12-18T09:24:56.601Z,17.40
2022-12-18T09:25:56.604Z,17.40
2022-12-18T09:26:58.059Z,17.40
2022-12-18T09:27:56.572Z,17.40
2022-12-18T09:28:56.552Z,17.35
2022-12-18T09:29:56.543Z,17.46
2022-12-18T09:30:56.582Z,17.62
2022-12-18T09:31:56.518Z,17.40
2022-12-18T09:32:56.500Z,17.40
2022-12-18T09:33:56.496Z,17.46
2022-12-18T09:34:56.478Z,17.40
2022-12-18T09:35:56.498Z,17.40
2022-12-18T09:36:56.449Z,16.92
2022-12-18T09:37:56.448Z,17.46
2022-12-18T09:38:56.427Z,17.56
2022-12-18T09:39:56.419Z,17.40
2022-12-18T09:40:56.416Z,17.40
2022-12-18T09:41:56.396Z,17.40
2022-12-18T09:42:56.378Z,17.40
2022-12-18T09:43:56.375Z,17.40
2022-12-18T09:44:56.407Z,17.40
2022-12-18T09:45:56.391Z,17.40
2022-12-18T09:46:56.335Z,17.46
2022-12-18T09:47:56.327Z,17.46
2022-12-18T09:48:56.304Z,17.40
2022-12-18T09:49:56.293Z,17.46
2022-12-18T09:50:56.301Z,17.40
2022-12-18T09:51:56.273Z,17.40
2022-12-18T09:52:56.253Z,17.40
2022-12-18T09:53:56.261Z,17.46
2022-12-18T09:54:56.233Z,17.40
2022-12-18T09:55:56.240Z,17.46
2022-12-18T09:56:56.202Z,18.42
2022-12-18T09:57:56.202Z,17.40
2022-12-18T09:58:56.310Z,17.46
2022-12-18T09:59:56.182Z,17.40
2022-12-18T10:00:56.169Z,17.40
2022-12-18T10:01:56.239Z,17.40
2022-12-18T10:02:56.220Z,17.40
2022-12-18T10:03:56.196Z,17.40
2022-12-18T10:04:56.108Z,17.46
2022-12-18T10:05:56.117Z,17.46
2022-12-18T10:06:56.089Z,17.40
2022-12-18T10:07:56.075Z,17.03
2022-12-18T10:08:56.058Z,17.03
2022-12-18T10:09:56.061Z,17.46
2022-12-18T10:10:56.057Z,17.40
2022-12-18T10:11:56.021Z,17.40
2022-12-18T10:13:00.969Z,17.46
2022-12-18T10:13:57.002Z,17.40
2022-12-18T10:14:55.988Z,16.97
2022-12-18T10:15:56.015Z,17.40
2022-12-18T10:16:55.962Z,17.03
2022-12-18T10:17:55.946Z,16.97
2022-12-18T10:18:55.942Z,17.46
2022-12-18T10:19:55.922Z,17.03
2022-12-18T10:20:55.924Z,17.03
2022-12-18T10:21:55.894Z,17.03
2022-12-18T10:22:55.885Z,17.03
2022-12-18T10:23:55.873Z,16.97
2022-12-18T10:24:55.866Z,17.46
2022-12-18T10:25:55.870Z,17.03
2022-12-18T10:26:55.833Z,17.03
2022-12-18T10:27:55.820Z,17.03
2022-12-18T10:28:58.534Z,17.40
2022-12-18T10:29:56.807Z,17.03
2022-12-18T10:30:55.835Z,17.03
2022-12-18T10:31:55.800Z,17.03
2022-12-18T10:32:55.759Z,16.97
2022-12-18T10:33:55.742Z,17.29
2022-12-18T10:35:00.117Z,17.03
2022-12-18T10:35:56.738Z,17.03
2022-12-18T10:36:55.709Z,17.03
2022-12-18T10:37:55.723Z,17.03
2022-12-18T10:38:55.679Z,17.03
2022-12-18T10:39:55.669Z,17.03
2022-12-18T10:40:55.675Z,17.13
2022-12-18T10:41:55.647Z,17.03
2022-12-18T10:42:55.638Z,17.03
2022-12-18T10:43:55.618Z,17.03
2022-12-18T10:44:55.635Z,17.03
2022-12-18T10:45:55.667Z,17.03
2022-12-18T10:46:55.617Z,17.03
2022-12-18T10:47:55.566Z,17.03
2022-12-18T10:48:55.566Z,17.03
2022-12-18T10:49:55.543Z,17.03
2022-12-18T10:51:13.016Z,16.70
2022-12-18T10:51:56.543Z,17.03
2022-12-18T10:52:55.511Z,17.03
2022-12-18T10:53:55.485Z,17.03
2022-12-18T10:54:55.479Z,16.97
2022-12-18T10:55:55.484Z,17.03
2022-12-18T10:56:55.462Z,17.03
2022-12-18T10:57:55.476Z,17.03
2022-12-18T10:58:55.432Z,17.03
2022-12-18T10:59:55.412Z,17.03
2022-12-18T11:00:55.434Z,17.03
2022-12-18T11:01:55.510Z,16.81
2022-12-18T11:02:55.636Z,17.03
2022-12-18T11:04:01.605Z,16.97
2022-12-18T11:04:56.357Z,16.97
2022-12-18T11:05:55.352Z,17.03
2022-12-18T11:06:55.331Z,17.03
2022-12-18T11:07:55.311Z,16.81
2022-12-18T11:08:55.312Z,17.03
2022-12-18T11:09:55.290Z,17.03
2022-12-18T11:10:55.288Z,16.81
2022-12-18T11:12:02.767Z,16.97
2022-12-18T11:12:55.256Z,16.81
2022-12-18T11:14:02.740Z,16.81
2022-12-18T11:15:02.731Z,16.76
2022-12-18T11:15:55.254Z,17.03
2022-12-18T11:17:24.430Z,17.03
2022-12-18T11:17:56.189Z,16.81
2022-12-18T11:18:55.179Z,16.97
2022-12-18T11:19:55.168Z,16.81
2022-12-18T11:20:58.537Z,16.81
2022-12-18T11:21:55.156Z,16.81
2022-12-18T11:22:55.146Z,16.81
2022-12-18T11:23:55.177Z,16.97
2022-12-18T11:25:29.677Z,17.03
2022-12-18T11:25:56.107Z,17.03
2022-12-18T11:26:59.668Z,16.76
2022-12-18T11:27:56.065Z,16.81
2022-12-18T11:28:55.057Z,16.81
2022-12-18T11:29:55.057Z,16.81
2022-12-18T11:30:55.074Z,16.81
2022-12-18T11:31:55.027Z,16.81
2022-12-18T11:32:55.007Z,16.87
2022-12-18T11:34:26.792Z,16.81
2022-12-18T11:34:59.012Z,16.87
2022-12-18T11:35:54.963Z,17.03
2022-12-18T11:36:54.973Z,16.81
2022-12-18T11:37:54.946Z,16.81
2022-12-18T11:38:54.931Z,17.03
2022-12-18T11:39:54.913Z,16.97
2022-12-18T11:40:54.911Z,16.87
2022-12-18T11:41:54.905Z,16.87
2022-12-18T11:42:54.893Z,16.81
2022-12-18T11:43:54.876Z,16.81
2022-12-18T11:44:54.854Z,16.81
2022-12-18T11:45:54.844Z,16.87
2022-12-18T11:46:54.928Z,16.81
2022-12-18T11:47:54.820Z,16.92
2022-12-18T11:48:54.832Z,16.81
2022-12-18T11:49:54.787Z,16.76
2022-12-18T11:50:54.794Z,16.81
2022-12-18T11:51:54.790Z,16.87
2022-12-18T11:52:59.243Z,16.81
2022-12-18T11:53:55.741Z,16.81
2022-12-18T11:54:54.750Z,16.81
2022-12-18T11:55:54.720Z,16.81
2022-12-18T11:56:54.760Z,17.03
2022-12-18T11:57:54.705Z,16.87
2022-12-18T11:58:54.720Z,16.81
2022-12-18T11:59:54.666Z,16.87
2022-12-18T12:00:54.653Z,16.76
2022-12-18T12:01:54.733Z,16.81
2022-12-18T12:02:54.655Z,16.87
2022-12-18T12:03:54.649Z,16.81
2022-12-18T12:04:54.601Z,16.81
2022-12-18T12:05:54.596Z,16.81
2022-12-18T12:06:58.644Z,17.08
2022-12-18T12:07:55.565Z,16.87
2022-12-18T12:08:54.598Z,17.03
2022-12-18T12:09:54.533Z,16.81
2022-12-18T12:10:54.525Z,16.87
2022-12-18T12:11:54.518Z,16.81
2022-12-18T12:12:54.505Z,16.81
2022-12-18T12:13:54.486Z,16.87
2022-12-18T12:14:54.482Z,16.81
2022-12-18T12:15:54.491Z,16.87
2022-12-18T12:16:54.462Z,16.81
2022-12-18T12:17:54.424Z,16.97
2022-12-18T12:18:54.425Z,17.03
2022-12-18T12:19:54.412Z,17.03
2022-12-18T12:20:54.395Z,16.87
2022-12-18T12:21:54.393Z,16.81
2022-12-18T12:22:54.363Z,16.81
2022-12-18T12:23:54.353Z,16.87
2022-12-18T12:24:54.342Z,16.87
2022-12-18T12:25:54.332Z,16.81
2022-12-18T12:26:54.341Z,16.87
2022-12-18T12:27:54.312Z,16.81
2022-12-18T12:28:54.292Z,16.81
2022-12-18T12:29:54.273Z,16.97
2022-12-18T12:30:54.286Z,16.87
2022-12-18T12:31:54.323Z,17.03
2022-12-18T12:32:54.248Z,17.03
2022-12-18T12:33:54.220Z,16.81
2022-12-18T12:34:59.586Z,16.65
2022-12-18T12:35:55.193Z,16.97
2022-12-18T12:36:54.211Z,17.03
2022-12-18T12:37:54.170Z,17.08
2022-12-18T12:38:54.171Z,16.81
2022-12-18T12:39:54.152Z,17.03
2022-12-18T12:41:02.128Z,16.81
2022-12-18T12:41:55.138Z,16.87
2022-12-18T12:42:54.117Z,16.87
2022-12-18T12:43:54.510Z,16.81
2022-12-18T12:44:56.337Z,16.81
2022-12-18T12:45:54.134Z,17.03
2022-12-18T12:46:54.078Z,17.03
2022-12-18T12:47:54.038Z,17.03
2022-12-18T12:48:54.034Z,16.65
2022-12-18T12:49:54.017Z,16.87
2022-12-18T12:50:54.007Z,16.81
2022-12-18T12:51:54.009Z,16.87
2022-12-18T12:52:53.995Z,16.65